createdAt,value
2017-09-22T00:00:16.215Z,12.43
2017-09-22T00:02:44.852Z,12.10
2017-09-22T00:05:14.098Z,12.07
2017-09-22T00:07:42.589Z,12.43
2017-09-22T00:10:11.192Z,12.17
2017-09-22T00:12:39.685Z,12.43
2017-09-22T00:15:08.155Z,12.80
2017-09-22T00:17:36.635Z,11.70
2017-09-22T00:20:05.114Z,12.53
2017-09-22T00:22:33.590Z,12.60
2017-09-22T00:25:02.064Z,13.00
2017-09-22T00:27:30.551Z,12.90
2017-09-22T00:29:59.163Z,12.60
2017-09-22T00:32:27.678Z,12.73
2017-09-22T00:34:56.724Z,12.37
2017-09-22T00:37:25.365Z,13.97
2017-09-22T00:39:54.491Z,12.90
2017-09-22T00:42:22.980Z,13.37
2017-09-22T00:44:51.255Z,13.47
2017-09-22T00:47:20.033Z,12.50
2017-09-22T00:49:48.139Z,12.00
2017-09-22T00:52:16.259Z,11.63
2017-09-22T00:54:45.484Z,13.70
2017-09-22T00:57:13.983Z,12.77
2017-09-22T00:59:42.430Z,12.97
2017-09-22T01:02:11.672Z,12.07
2017-09-22T01:04:40.151Z,12.03
2017-09-22T01:07:08.628Z,10.90
2017-09-22T01:09:38.035Z,12.37
2017-09-22T01:12:06.578Z,11.50
2017-09-22T01:14:35.826Z,13.10
2017-09-22T01:17:04.291Z,12.83
2017-09-22T01:19:32.787Z,12.23
2017-09-22T01:22:01.659Z,12.53
2017-09-22T01:24:30.123Z,13.50
2017-09-22T01:26:58.687Z,14.00
2017-09-22T01:29:27.936Z,13.23
2017-09-22T01:31:56.411Z,14.77
2017-09-22T01:34:24.887Z,14.40
2017-09-22T01:36:53.383Z,14.90
2017-09-22T01:39:21.839Z,13.30
2017-09-22T01:41:51.098Z,13.77
2017-09-22T01:44:19.559Z,15.07
2017-09-22T01:46:48.040Z,13.07
2017-09-22T01:49:16.502Z,13.97
2017-09-22T01:51:44.969Z,13.00
2017-09-22T01:54:13.448Z,14.00
2017-09-22T01:56:42.682Z,14.27
2017-09-22T01:59:11.159Z,14.53
2017-09-22T02:01:39.625Z,14.73
2017-09-22T02:04:08.091Z,14.27
2017-09-22T02:06:36.582Z,13.33
2017-09-22T02:09:04.504Z,13.20
2017-09-22T02:11:33.212Z,14.23
2017-09-22T02:14:01.710Z,14.53
2017-09-22T02:16:30.959Z,14.80
2017-09-22T02:18:59.475Z,14.47
2017-09-22T02:21:27.951Z,14.27
2017-09-22T02:23:56.412Z,13.70
2017-09-22T02:26:24.903Z,15.70
2017-09-22T02:28:53.555Z,15.27
2017-09-22T02:31:22.043Z,14.87
2017-09-22T02:33:50.528Z,14.50
2017-09-22T02:36:18.643Z,14.90
2017-09-22T02:38:47.131Z,16.27
2017-09-22T02:41:16.354Z,15.80
2017-09-22T02:43:45.616Z,17.30
2017-09-22T02:46:14.098Z,16.10
2017-09-22T02:48:42.766Z,16.90
2017-09-22T02:51:12.259Z,16.03
2017-09-22T02:53:40.725Z,14.90
2017-09-22T02:56:09.219Z,15.23
2017-09-22T02:58:37.699Z,14.80
2017-09-22T03:01:06.182Z,15.80
2017-09-22T03:03:34.687Z,14.53
2017-09-22T03:06:03.148Z,14.50
2017-09-22T03:08:31.652Z,16.03
2017-09-22T03:11:00.112Z,16.30
2017-09-22T03:13:28.659Z,17.20
2017-09-22T03:15:57.892Z,16.03
2017-09-22T03:18:26.501Z,15.27
2017-09-22T03:20:55.007Z,14.53
2017-09-22T03:23:23.463Z,14.37
2017-09-22T03:25:51.939Z,15.70
2017-09-22T03:28:20.398Z,14.30
2017-09-22T03:30:48.876Z,14.97
2017-09-22T03:33:17.339Z,15.40
2017-09-22T03:35:46.586Z,14.77
2017-09-22T03:38:15.120Z,14.60
2017-09-22T03:40:43.686Z,15.10
2017-09-22T03:43:12.171Z,16.17
2017-09-22T03:45:40.643Z,14.10
2017-09-22T03:48:09.127Z,14.53
2017-09-22T03:50:37.412Z,14.20
2017-09-22T03:53:05.895Z,13.73
2017-09-22T03:55:35.119Z,15.90
2017-09-22T03:58:04.359Z,16.77
2017-09-22T04:00:32.896Z,14.80
2017-09-22T04:03:02.126Z,16.57
2017-09-22T04:05:30.612Z,15.70
2017-09-22T04:07:59.214Z,15.87
2017-09-22T04:10:27.696Z,16.43
2017-09-22T04:12:56.159Z,15.57
2017-09-22T04:15:24.635Z,15.70
2017-09-22T04:17:53.133Z,15.07
2017-09-22T04:20:21.607Z,14.93
2017-09-22T04:22:50.087Z,14.40
2017-09-22T04:25:18.570Z,14.77
2017-09-22T04:27:46.884Z,14.63
2017-09-22T04:30:15.454Z,15.47
2017-09-22T04:32:43.936Z,15.30
2017-09-22T04:35:12.402Z,16.53
2017-09-22T04:37:40.878Z,16.60
2017-09-22T04:40:09.351Z,16.73
2017-09-22T04:42:38.588Z,16.77
2017-09-22T04:45:07.059Z,16.77
2017-09-22T04:47:35.537Z,15.37
2017-09-22T04:50:03.668Z,17.30
2017-09-22T04:52:32.131Z,15.60
2017-09-22T04:55:00.620Z,15.70
2017-09-22T04:57:29.139Z,15.20
2017-09-22T04:59:58.387Z,15.47
2017-09-22T05:02:26.860Z,14.40
2017-09-22T05:04:55.331Z,15.50
2017-09-22T05:07:23.855Z,14.93
2017-09-22T05:09:52.323Z,15.13
2017-09-22T05:12:20.790Z,15.70
2017-09-22T05:14:49.275Z,15.10
2017-09-22T05:17:17.764Z,14.47
2017-09-22T05:19:46.232Z,15.87
2017-09-22T05:22:14.704Z,13.83
2017-09-22T05:24:43.186Z,14.07
2017-09-22T05:27:11.661Z,14.27
2017-09-22T05:29:40.195Z,15.93
2017-09-22T05:32:08.796Z,16.10
2017-09-22T05:34:38.072Z,15.60
2017-09-22T05:37:06.536Z,14.20
2017-09-22T05:39:35.003Z,14.17
2017-09-22T05:42:03.588Z,12.63
2017-09-22T05:44:32.069Z,14.03
2017-09-22T05:47:00.559Z,13.37
2017-09-22T05:49:29.087Z,12.60
2017-09-22T05:51:57.560Z,13.80
2017-09-22T05:54:26.024Z,14.67
2017-09-22T05:56:54.498Z,15.40
2017-09-22T05:59:22.984Z,14.07
2017-09-22T06:01:51.467Z,12.43
2017-09-22T06:04:20.020Z,13.13
2017-09-22T06:06:48.507Z,12.07
2017-09-22T06:09:16.979Z,14.10
2017-09-22T06:11:45.456Z,14.17
2017-09-22T06:14:13.971Z,14.30
2017-09-22T06:16:42.451Z,15.70
2017-09-22T06:19:11.841Z,13.10
2017-09-22T06:21:40.315Z,13.83
2017-09-22T06:24:08.811Z,14.93
2017-09-22T06:26:37.276Z,14.17
2017-09-22T06:29:05.756Z,14.27
2017-09-22T06:31:34.239Z,13.77
2017-09-22T06:34:02.730Z,14.00
2017-09-22T06:36:31.430Z,14.93
2017-09-22T06:38:59.928Z,13.70
2017-09-22T06:41:28.407Z,17.20
2017-09-22T06:43:56.890Z,16.00
2017-09-22T06:46:25.358Z,16.23
2017-09-22T06:48:54.057Z,16.97
2017-09-22T06:51:22.603Z,16.60
2017-09-22T06:53:51.854Z,16.97
2017-09-22T06:56:20.360Z,16.80
2017-09-22T06:58:49.662Z,16.20
2017-09-22T07:01:19.132Z,16.93
2017-09-22T07:03:47.622Z,17.40
2017-09-22T07:06:16.088Z,16.57
2017-09-22T07:08:44.636Z,17.77
2017-09-22T07:11:13.904Z,18.33
2017-09-22T07:13:42.383Z,17.17
2017-09-22T07:16:10.896Z,17.03
2017-09-22T07:18:39.383Z,16.40
2017-09-22T07:21:08.661Z,16.90
2017-09-22T07:23:38.120Z,17.40
2017-09-22T07:26:06.624Z,18.00
2017-09-22T07:28:35.080Z,17.50
2017-09-22T07:31:03.583Z,18.20
2017-09-22T07:33:32.055Z,17.00
2017-09-22T07:36:00.522Z,20.87
2017-09-22T07:38:29.766Z,18.03
2017-09-22T07:40:58.322Z,17.63
2017-09-22T07:43:26.796Z,19.83
2017-09-22T07:45:55.268Z,19.50
2017-09-22T07:48:23.757Z,19.30
2017-09-22T07:50:52.228Z,18.40
2017-09-22T07:53:21.488Z,19.77
2017-09-22T07:55:50.051Z,19.40
2017-09-22T07:58:18.539Z,18.43
2017-09-22T08:00:47.001Z,19.20
2017-09-22T08:03:15.700Z,19.13
2017-09-22T08:05:44.180Z,17.90
2017-09-22T08:08:12.667Z,17.20
2017-09-22T08:10:41.344Z,16.17
2017-09-22T08:13:09.859Z,15.67
2017-09-22T08:15:38.421Z,15.90
2017-09-22T08:18:06.915Z,15.23
2017-09-22T08:20:35.395Z,14.47
2017-09-22T08:23:03.864Z,13.30
2017-09-22T08:25:32.364Z,13.37
2017-09-22T08:28:00.849Z,12.80
2017-09-22T08:30:29.320Z,12.10
2017-09-22T08:32:57.799Z,12.37
2017-09-22T08:35:26.930Z,13.17
2017-09-22T08:37:56.154Z,10.70
2017-09-22T08:40:25.433Z,11.67
2017-09-22T08:42:53.718Z,12.20
2017-09-22T08:45:22.179Z,11.10
2017-09-22T08:47:50.681Z,10.43
2017-09-22T08:50:19.172Z,10.57
2017-09-22T08:52:47.643Z,11.80
2017-09-22T08:55:16.127Z,10.40
2017-09-22T08:57:44.657Z,10.57
2017-09-22T09:00:13.132Z,10.47
2017-09-22T09:02:41.612Z,9.83
2017-09-22T09:05:10.087Z,10.93
2017-09-22T09:07:39.580Z,10.80
2017-09-22T09:10:08.843Z,10.13
2017-09-22T09:12:37.347Z,11.50
2017-09-22T09:15:05.817Z,10.63
2017-09-22T09:17:34.371Z,11.10
2017-09-22T09:20:02.837Z,10.50
2017-09-22T09:22:31.306Z,11.00
2017-09-22T09:25:00.748Z,11.43
2017-09-22T09:27:29.203Z,11.50
2017-09-22T09:29:57.682Z,11.30
2017-09-22T09:32:26.207Z,10.33
2017-09-22T09:34:54.704Z,10.67
2017-09-22T09:37:23.180Z,10.63
2017-09-22T09:39:51.652Z,10.90
2017-09-22T09:42:20.144Z,10.60
2017-09-22T09:44:48.609Z,10.27
2017-09-22T09:47:17.080Z,9.63
2017-09-22T09:49:45.563Z,9.63
2017-09-22T09:52:14.155Z,10.80
2017-09-22T09:54:42.618Z,9.40
2017-09-22T09:57:11.095Z,8.00
2017-09-22T09:59:39.547Z,9.30
2017-09-22T10:02:08.796Z,8.50
2017-09-22T10:04:37.087Z,8.60
2017-09-22T10:07:05.573Z,8.13
2017-09-22T10:09:34.042Z,6.70
2017-09-22T10:12:02.519Z,7.40
2017-09-22T10:14:30.971Z,7.67
2017-09-22T10:17:00.312Z,7.17
2017-09-22T10:19:28.762Z,8.10
2017-09-22T10:21:57.235Z,8.53
2017-09-22T10:24:26.392Z,9.07
2017-09-22T10:26:54.871Z,7.50
2017-09-22T10:29:23.341Z,8.30
2017-09-22T10:31:51.908Z,7.90
2017-09-22T10:34:20.612Z,9.87
2017-09-22T10:36:49.075Z,9.67
2017-09-22T10:39:17.543Z,8.83
2017-09-22T10:41:46.260Z,9.23
2017-09-22T10:44:14.715Z,9.67
2017-09-22T10:46:43.191Z,9.30
2017-09-22T10:49:12.419Z,9.00
2017-09-22T10:51:40.899Z,9.27
2017-09-22T10:54:09.364Z,8.57
2017-09-22T10:56:37.829Z,11.20
2017-09-22T10:59:07.067Z,10.30
2017-09-22T11:01:35.539Z,8.90
2017-09-22T11:04:04.028Z,11.20
2017-09-22T11:06:32.528Z,11.13
2017-09-22T11:09:01.015Z,10.77
2017-09-22T11:11:29.474Z,10.57
2017-09-22T11:13:57.983Z,10.63
2017-09-22T11:16:26.446Z,9.80
2017-09-22T11:18:54.937Z,9.20
2017-09-22T11:21:23.420Z,8.90
2017-09-22T11:23:51.939Z,9.30
2017-09-22T11:26:20.407Z,10.30
2017-09-22T11:28:48.948Z,11.07
2017-09-22T11:31:16.217Z,10.60
2017-09-22T11:33:44.016Z,10.13
2017-09-22T11:36:12.571Z,11.73
2017-09-22T11:38:41.055Z,11.80
2017-09-22T11:41:09.528Z,10.30
2017-09-22T11:43:37.980Z,8.30
2017-09-22T11:46:07.233Z,9.33
2017-09-22T11:48:35.695Z,8.53
2017-09-22T11:51:04.176Z,9.43
2017-09-22T11:53:32.655Z,8.27
2017-09-22T11:56:01.139Z,9.00
2017-09-22T11:58:29.629Z,8.90
2017-09-22T12:00:58.108Z,9.00
2017-09-22T12:03:26.581Z,8.63
2017-09-22T12:05:55.040Z,7.73
2017-09-22T12:08:23.525Z,8.20
2017-09-22T12:10:52.761Z,10.67
2017-09-22T12:13:21.260Z,8.73
2017-09-22T12:15:49.736Z,9.30
2017-09-22T12:18:18.203Z,9.30
2017-09-22T12:20:46.754Z,9.93
2017-09-22T12:23:15.224Z,9.30
2017-09-22T12:25:44.481Z,10.57
2017-09-22T12:28:12.947Z,9.60
2017-09-22T12:30:41.432Z,9.30
2017-09-22T12:33:09.911Z,8.93
2017-09-22T12:35:38.411Z,9.73
2017-09-22T12:38:06.939Z,10.53
2017-09-22T12:40:36.168Z,8.60
2017-09-22T12:43:04.655Z,8.50
2017-09-22T12:45:33.123Z,11.40
2017-09-22T12:48:01.633Z,10.87
2017-09-22T12:50:30.114Z,9.27
2017-09-22T12:52:58.601Z,9.53
2017-09-22T12:55:27.088Z,9.30
2017-09-22T12:57:55.555Z,9.03
2017-09-22T13:00:24.035Z,8.80
2017-09-22T13:02:52.575Z,9.20
2017-09-22T13:05:21.830Z,9.13
2017-09-22T13:07:50.145Z,10.20
2017-09-22T13:10:18.625Z,10.80
2017-09-22T13:12:47.071Z,9.70
2017-09-22T13:15:15.346Z,9.60
2017-09-22T13:17:43.832Z,9.97
2017-09-22T13:20:12.403Z,7.57
2017-09-22T13:22:40.892Z,7.90
2017-09-22T13:25:09.384Z,7.53
2017-09-22T13:27:37.849Z,7.57
2017-09-22T13:30:06.264Z,7.97
2017-09-22T13:32:34.539Z,7.70
2017-09-22T13:35:03.002Z,8.33
2017-09-22T13:37:31.474Z,8.13
2017-09-22T13:39:59.935Z,8.93
2017-09-22T13:42:28.463Z,8.37
2017-09-22T13:44:57.034Z,7.77
2017-09-22T13:47:25.488Z,8.60
2017-09-22T13:49:53.972Z,8.07
2017-09-22T13:52:22.444Z,9.10
2017-09-22T13:54:51.492Z,8.03
2017-09-22T13:57:19.960Z,9.57
2017-09-22T13:59:48.430Z,8.10
2017-09-22T14:02:16.884Z,8.23
2017-09-22T14:04:45.954Z,8.10
2017-09-22T14:07:14.450Z,8.53
2017-09-22T14:09:43.691Z,8.93
2017-09-22T14:12:12.238Z,9.00
2017-09-22T14:14:41.495Z,10.10
2017-09-22T14:17:10.083Z,9.87
2017-09-22T14:19:38.567Z,9.00
2017-09-22T14:22:07.056Z,8.27
2017-09-22T14:24:35.540Z,9.60
2017-09-22T14:27:04.027Z,8.70
2017-09-22T14:29:34.107Z,8.23
2017-09-22T14:32:02.400Z,7.53
2017-09-22T14:34:30.885Z,7.20
2017-09-22T14:36:59.366Z,9.00
2017-09-22T14:39:27.850Z,10.23
2017-09-22T14:41:56.329Z,9.00
2017-09-22T14:44:24.803Z,9.10
2017-09-22T14:46:53.291Z,8.70
2017-09-22T14:49:21.763Z,8.93
2017-09-22T14:51:50.280Z,8.47
2017-09-22T14:54:18.743Z,8.70
2017-09-22T14:56:47.210Z,8.30
2017-09-22T14:59:15.705Z,9.03
2017-09-22T15:01:44.176Z,7.23
2017-09-22T15:04:12.643Z,8.00
2017-09-22T15:06:41.201Z,8.77
2017-09-22T15:09:10.452Z,7.77
2017-09-22T15:11:38.927Z,7.13
2017-09-22T15:14:07.413Z,7.63
2017-09-22T15:16:36.027Z,7.97
2017-09-22T15:19:04.480Z,7.23
2017-09-22T15:21:32.972Z,7.40
2017-09-22T15:24:01.434Z,6.37
2017-09-22T15:26:29.931Z,6.67
2017-09-22T15:28:58.659Z,6.43
2017-09-22T15:31:27.133Z,7.00
2017-09-22T15:33:55.618Z,6.77
2017-09-22T15:36:24.109Z,6.47
2017-09-22T15:38:52.573Z,7.57
2017-09-22T15:41:21.059Z,7.47
2017-09-22T15:43:49.536Z,6.20
2017-09-22T15:46:18.023Z,6.70
2017-09-22T15:48:46.690Z,6.80
2017-09-22T15:51:15.265Z,7.43
2017-09-22T15:53:43.746Z,6.53
2017-09-22T15:56:12.341Z,5.70
2017-09-22T15:58:40.826Z,6.10
2017-09-22T16:01:09.300Z,5.50
2017-09-22T16:03:37.771Z,5.43
2017-09-22T16:06:06.271Z,5.80
2017-09-22T16:08:34.750Z,5.60
2017-09-22T16:11:03.216Z,5.40
2017-09-22T16:13:31.514Z,5.43
2017-09-22T16:15:59.809Z,5.03
2017-09-22T16:18:28.290Z,5.00
2017-09-22T16:20:56.767Z,4.70
2017-09-22T16:23:25.260Z,4.90
2017-09-22T16:25:53.727Z,4.60
2017-09-22T16:28:22.186Z,5.47
2017-09-22T16:30:50.703Z,5.53
2017-09-22T16:33:19.160Z,5.00
2017-09-22T16:35:47.636Z,4.80
2017-09-22T16:38:16.091Z,5.20
2017-09-22T16:40:45.328Z,5.53
2017-09-22T16:43:13.902Z,5.43
2017-09-22T16:45:42.384Z,4.93
2017-09-22T16:48:10.846Z,5.00
2017-09-22T16:50:40.096Z,5.30
2017-09-22T16:53:08.556Z,5.73
2017-09-22T16:55:37.011Z,5.47
2017-09-22T16:58:06.337Z,5.67
2017-09-22T17:00:34.803Z,5.57
2017-09-22T17:03:03.293Z,5.10
2017-09-22T17:05:31.587Z,5.63
2017-09-22T17:08:00.094Z,5.90
2017-09-22T17:10:28.370Z,5.40
2017-09-22T17:12:56.836Z,6.00
2017-09-22T17:15:25.298Z,5.20
2017-09-22T17:17:53.766Z,5.57
2017-09-22T17:20:22.246Z,6.10
2017-09-22T17:22:51.184Z,5.80
2017-09-22T17:25:19.667Z,6.37
2017-09-22T17:27:48.127Z,5.70
2017-09-22T17:30:16.612Z,5.60
2017-09-22T17:32:45.081Z,5.60
2017-09-22T17:35:13.559Z,6.30
2017-09-22T17:37:42.053Z,6.10
2017-09-22T17:40:10.541Z,6.57
2017-09-22T17:42:39.047Z,6.90
2017-09-22T17:45:07.536Z,6.93
2017-09-22T17:47:36.019Z,6.80
2017-09-22T17:50:04.512Z,6.40
2017-09-22T17:52:33.000Z,6.93
2017-09-22T17:55:01.472Z,6.53
2017-09-22T17:57:29.944Z,7.10
2017-09-22T17:59:58.404Z,6.83
2017-09-22T18:02:26.884Z,6.50
2017-09-22T18:04:55.340Z,6.93
2017-09-22T18:07:23.830Z,6.50
2017-09-22T18:09:52.336Z,6.83
2017-09-22T18:12:21.036Z,6.40
2017-09-22T18:14:49.499Z,7.30
2017-09-22T18:17:17.959Z,7.33
2017-09-22T18:19:46.448Z,7.07
2017-09-22T18:22:14.236Z,6.33
2017-09-22T18:24:42.911Z,7.30
2017-09-22T18:27:11.388Z,6.40
2017-09-22T18:29:39.857Z,7.23
2017-09-22T18:32:09.083Z,7.30
2017-09-22T18:34:37.594Z,7.67
2017-09-22T18:37:06.084Z,7.23
2017-09-22T18:39:34.549Z,7.47
2017-09-22T18:42:03.018Z,7.27
2017-09-22T18:44:31.472Z,7.80
2017-09-22T18:46:59.772Z,7.27
2017-09-22T18:49:28.064Z,7.33
2017-09-22T18:51:56.544Z,8.00
2017-09-22T18:54:25.035Z,7.53
2017-09-22T18:56:53.500Z,9.07
2017-09-22T18:59:21.984Z,8.77
2017-09-22T19:01:50.445Z,9.10
2017-09-22T19:04:18.952Z,10.07
2017-09-22T19:06:47.430Z,9.00
2017-09-22T19:09:15.905Z,8.93
2017-09-22T19:11:44.386Z,8.63
2017-09-22T19:14:12.896Z,9.13
2017-09-22T19:16:41.371Z,9.23
2017-09-22T19:19:09.866Z,9.37
2017-09-22T19:21:38.358Z,9.40
2017-09-22T19:24:06.682Z,10.83
2017-09-22T19:26:35.184Z,11.00
2017-09-22T19:29:03.663Z,10.70
2017-09-22T19:31:31.933Z,11.40
2017-09-22T19:34:00.243Z,10.90
2017-09-22T19:36:28.796Z,10.83
2017-09-22T19:38:57.308Z,10.90
2017-09-22T19:41:25.788Z,10.63
2017-09-22T19:43:54.260Z,12.43
2017-09-22T19:46:22.784Z,11.30
2017-09-22T19:48:51.272Z,10.83
2017-09-22T19:51:19.775Z,10.77
2017-09-22T19:53:49.019Z,11.30
2017-09-22T19:56:17.564Z,11.63
2017-09-22T19:58:46.068Z,10.73
2017-09-22T20:01:14.547Z,10.40
2017-09-22T20:03:43.133Z,11.10
2017-09-22T20:06:11.613Z,11.17
2017-09-22T20:08:41.047Z,11.23
2017-09-22T20:11:09.527Z,10.87
2017-09-22T20:13:38.031Z,12.80
2017-09-22T20:16:06.508Z,12.70
2017-09-22T20:18:34.860Z,11.83
2017-09-22T20:21:03.340Z,12.57
2017-09-22T20:23:31.812Z,11.60
2017-09-22T20:26:00.291Z,13.03
2017-09-22T20:28:28.763Z,14.23
2017-09-22T20:30:57.283Z,13.80
2017-09-22T20:33:25.747Z,14.47
2017-09-22T20:35:54.233Z,13.33
2017-09-22T20:38:22.716Z,13.63
2017-09-22T20:40:51.178Z,13.07
2017-09-22T20:43:19.667Z,13.67
2017-09-22T20:45:48.133Z,13.73
2017-09-22T20:48:16.642Z,13.97
2017-09-22T20:50:45.132Z,13.40
2017-09-22T20:53:13.636Z,13.67
2017-09-22T20:55:42.111Z,13.10
2017-09-22T20:58:10.593Z,13.90
2017-09-22T21:00:39.131Z,12.33
2017-09-22T21:03:08.380Z,11.97
2017-09-22T21:05:36.897Z,12.27
2017-09-22T21:08:06.120Z,12.83
2017-09-22T21:10:34.623Z,12.07
2017-09-22T21:13:03.075Z,11.83
2017-09-22T21:15:32.332Z,11.90
2017-09-22T21:18:00.924Z,11.40
2017-09-22T21:20:29.389Z,11.13
2017-09-22T21:22:57.883Z,10.33
2017-09-22T21:25:26.364Z,11.27
2017-09-22T21:27:55.668Z,10.57
2017-09-22T21:30:24.144Z,13.07
2017-09-22T21:32:52.636Z,11.23
2017-09-22T21:35:21.202Z,10.73
2017-09-22T21:37:49.675Z,10.97
2017-09-22T21:40:18.163Z,11.80
2017-09-22T21:42:46.634Z,11.00
2017-09-22T21:45:15.195Z,11.50
2017-09-22T21:47:44.435Z,11.63
2017-09-22T21:50:13.038Z,10.27
2017-09-22T21:52:41.520Z,11.63
2017-09-22T21:55:10.061Z,11.70
2017-09-22T21:57:38.602Z,11.87
2017-09-22T22:00:07.899Z,11.00
2017-09-22T22:02:40.228Z,10.37
2017-09-22T22:05:14.086Z,10.73
2017-09-22T22:07:43.388Z,10.70
2017-09-22T22:10:12.687Z,10.67
2017-09-22T22:12:41.203Z,11.20
2017-09-22T22:15:09.699Z,10.40
2017-09-22T22:17:38.252Z,10.13
2017-09-22T22:20:07.534Z,10.80
2017-09-22T22:22:36.094Z,10.73
2017-09-22T22:25:04.596Z,9.40
2017-09-22T22:27:33.303Z,10.60
2017-09-22T22:30:02.598Z,10.20
2017-09-22T22:32:31.885Z,11.10
2017-09-22T22:35:00.402Z,10.73
2017-09-22T22:37:32.162Z,11.63
2017-09-22T22:40:00.700Z,10.50
2017-09-22T22:42:29.239Z,10.30
2017-09-22T22:44:57.763Z,10.70
2017-09-22T22:47:26.274Z,10.43
2017-09-22T22:49:55.554Z,11.53
2017-09-22T22:52:24.071Z,10.23
2017-09-22T22:54:53.415Z,10.77
2017-09-22T22:57:21.955Z,11.57
2017-09-22T22:59:51.241Z,10.83
2017-09-22T23:02:19.775Z,12.77
2017-09-22T23:04:48.289Z,11.30
2017-09-22T23:07:16.831Z,10.90
2017-09-22T23:09:45.002Z,11.77
2017-09-22T23:12:13.547Z,10.83
2017-09-22T23:14:42.052Z,10.83
2017-09-22T23:17:11.307Z,10.57
2017-09-22T23:19:39.836Z,11.70
2017-09-22T23:22:08.415Z,11.50
2017-09-22T23:24:37.707Z,12.27
2017-09-22T23:27:06.211Z,12.03
2017-09-22T23:29:35.491Z,12.13
2017-09-22T23:32:04.014Z,11.53
2017-09-22T23:34:32.521Z,11.30
2017-09-22T23:37:01.043Z,11.13
2017-09-22T23:39:30.295Z,11.47
2017-09-22T23:41:58.947Z,11.53
2017-09-22T23:44:28.219Z,10.93
2017-09-22T23:46:57.667Z,12.30
2017-09-22T23:49:26.233Z,12.73
2017-09-22T23:51:55.519Z,12.27
2017-09-22T23:54:24.050Z,12.57
2017-09-22T23:56:52.583Z,12.20
2017-09-22T23:59:21.096Z,11.10
